Time;durP1;ratioP1;P1;durP2;ratioP2;P2;SDS_P1;SDS_P2;PMS_P1;PMS_P2;Temp;Humidity;BMP_temperature;BMP_pressure;BME280_temperature;BME280_humidity;BME280_pressure;Samples;Min_cycle;Max_cycle;Signal;HPM_P1;HPM_P2
2022/06/01 00:01:24;;;;;;;1.70;0.50;;;;;;;23.56;49.52;100409.16;5067451;28;20032;-69
2022/06/01 00:03:49;;;;;;;2.00;0.40;;;;;;;23.54;49.24;100406.72;5062893;28;20376;-75
2022/06/01 00:06:15;;;;;;;3.13;0.40;;;;;;;23.54;49.58;100413.88;5059731;28;20032;-75
2022/06/01 00:08:41;;;;;;;1.30;0.50;;;;;;;23.53;49.58;100407.75;5062077;28;20476;-75
2022/06/01 00:11:08;;;;;;;1.13;0.30;;;;;;;23.53;49.33;100410.41;5065003;28;20058;-75
2022/06/01 00:13:34;;;;;;;2.05;0.40;;;;;;;23.55;49.25;100407.53;5061271;28;20314;-70
2022/06/01 00:16:00;;;;;;;3.38;0.57;;;;;;;23.56;49.27;100412.63;5068246;28;20028;-73
2022/06/01 00:18:26;;;;;;;3.70;0.40;;;;;;;23.57;49.24;100418.75;5066800;28;20420;-75
2022/06/01 00:20:52;;;;;;;0.70;0.30;;;;;;;23.57;49.12;100419.56;5057988;28;20021;-76
2022/06/01 00:23:18;;;;;;;1.73;0.40;;;;;;;23.58;49.14;100423.03;5063197;28;20538;-73
2022/06/01 00:25:44;;;;;;;1.40;0.40;;;;;;;23.58;49.30;100425.69;5061410;28;20187;-75
2022/06/01 00:28:09;;;;;;;1.90;0.40;;;;;;;23.59;49.27;100424.66;5067030;28;20202;-74
2022/06/01 00:30:35;;;;;;;1.17;0.30;;;;;;;23.61;49.13;100425.22;5068156;28;20028;-72
2022/06/01 00:33:00;;;;;;;1.38;0.40;;;;;;;23.61;49.05;100430.53;5067707;28;20017;-73
2022/06/01 00:35:26;;;;;;;5.63;0.43;;;;;;;23.62;49.01;100426.84;5068039;28;20027;-71
2022/06/01 00:37:52;;;;;;;3.15;0.43;;;;;;;23.62;49.03;100417.03;5066496;28;20103;-71
2022/06/01 00:40:20;;;;;;;1.20;0.40;;;;;;;23.62;48.94;100414.34;5068105;28;20020;-72
2022/06/01 00:42:49;;;;;;;1.33;0.50;;;;;;;23.63;48.87;100405.31;5066866;28;20052;-72
2022/06/01 00:45:20;;;;;;;2.15;0.57;;;;;;;23.62;48.83;100402.91;5067725;28;20101;-73
2022/06/01 00:47:45;;;;;;;1.92;0.50;;;;;;;23.62;48.95;100410.88;5065141;28;20031;-72
2022/06/01 00:50:39;;;;;;;1.35;0.40;;;;;;;23.61;49.33;100409.28;5067522;28;20036;-75
2022/06/01 00:53:10;;;;;;;3.85;0.57;;;;;;;23.59;49.42;100408.69;5068100;28;20069;-71
2022/06/01 00:55:40;;;;;;;2.08;0.60;;;;;;;23.60;49.41;100413.78;5065972;28;20033;-69
2022/06/01 00:58:10;;;;;;;2.47;0.68;;;;;;;23.60;48.97;100408.47;5062790;28;20362;-70
2022/06/01 01:00:39;;;;;;;2.42;0.30;;;;;;;23.61;49.36;100411.94;5050721;28;20078;-73
2022/06/01 01:03:06;;;;;;;1.67;0.40;;;;;;;23.61;48.84;100417.25;5061410;28;20112;-74
2022/06/01 01:05:33;;;;;;;1.63;0.40;;;;;;;23.61;48.87;100419.91;5061268;28;20093;-69
2022/06/01 01:08:03;;;;;;;1.60;0.65;;;;;;;23.59;48.87;100428.13;5059866;28;20044;-72
2022/06/01 01:10:28;;;;;;;1.80;0.47;;;;;;;23.58;48.75;100425.69;5064078;28;20045;-74
2022/06/01 01:13:01;;;;;;;1.73;0.50;;;;;;;23.56;49.20;100430.41;5059383;28;20450;-73
2022/06/01 01:15:34;;;;;;;3.63;0.57;;;;;;;23.53;49.16;100421.06;5061574;28;20028;-70
2022/06/01 01:18:02;;;;;;;2.80;0.68;;;;;;;23.49;49.03;100423.34;5065171;28;20562;-73
2022/06/01 01:20:28;;;;;;;3.67;0.88;;;;;;;23.43;49.03;100429.56;5068458;28;20110;-73
2022/06/01 01:23:01;;;;;;;2.17;0.70;;;;;;;23.42;49.55;100430.59;5070239;28;20085;-76
2022/06/01 01:25:35;;;;;;;1.42;0.60;;;;;;;23.38;49.27;100426.78;5052816;28;20032;-76
2022/06/01 01:28:03;;;;;;;3.38;0.47;;;;;;;23.38;49.33;100426.78;5064178;28;20069;-73
2022/06/01 01:30:37;;;;;;;1.30;0.40;;;;;;;23.38;49.18;100425.97;5066589;28;20466;-73
2022/06/01 01:33:09;;;;;;;2.83;0.50;;;;;;;23.39;49.26;100422.28;5069663;28;20032;-71
2022/06/01 01:35:35;;;;;;;1.35;0.47;;;;;;;23.40;49.06;100418.56;5061911;28;20032;-71
2022/06/01 01:38:07;;;;;;;2.42;0.40;;;;;;;23.41;49.40;100418.34;5064533;28;20029;-72
2022/06/01 01:40:34;;;;;;;2.10;0.45;;;;;;;23.42;49.17;100412.00;5067638;28;20024;-75
2022/06/01 01:43:01;;;;;;;2.05;0.45;;;;;;;23.44;49.16;100414.41;5063258;28;20037;-75
2022/06/01 01:45:29;;;;;;;1.13;0.30;;;;;;;23.45;48.67;100421.34;5069857;28;20066;-72
2022/06/01 01:47:55;;;;;;;1.17;0.30;;;;;;;23.45;48.99;100419.50;5069637;28;20029;-71
2022/06/01 01:50:22;;;;;;;2.17;0.50;;;;;;;23.46;49.11;100417.66;5069818;28;20063;-72
2022/06/01 01:52:48;;;;;;;2.47;0.30;;;;;;;23.46;48.94;100422.97;5058267;28;20013;-74
2022/06/01 01:55:56;;;;;;;2.97;0.40;;;;;;;23.44;48.98;100431.19;5069437;28;20480;-73
2022/06/01 01:58:41;;;;;;;1.77;0.50;;;;;;;23.43;48.77;100429.56;5054340;28;20060;-76
2022/06/01 02:01:18;;;;;;;1.85;0.35;;;;;;;23.41;49.09;100433.50;5065153;28;20583;-72
2022/06/01 02:03:53;;;;;;;1.13;0.50;;;;;;;23.40;48.76;100427.38;5061356;28;20036;-75
2022/06/01 02:06:28;;;;;;;1.17;0.40;;;;;;;23.41;48.83;100428.19;5070195;28;20032;-75
2022/06/01 02:09:03;;;;;;;;;;;;;;;23.31;49.01;100419.94;5069973;28;20377;-71
2022/06/01 02:14:37;;;;;;;1.55;0.60;;;;;;;23.34;48.80;100432.78;5058084;28;20527;-70
2022/06/01 02:17:22;;;;;;;2.13;0.52;;;;;;;23.35;49.08;100429.09;5069678;28;20365;-72
2022/06/01 02:19:52;;;;;;;;;;;;;;;23.24;49.11;100420.06;5065185;28;20063;-74
2022/06/01 02:22:18;;;;;;;1.73;0.73;;;;;;;23.29;49.02;100422.84;5060096;28;20396;-72
2022/06/01 02:24:45;;;;;;;2.33;0.50;;;;;;;23.32;48.70;100422.38;5063612;28;20536;-71
2022/06/01 02:27:12;;;;;;;1.15;0.40;;;;;;;23.34;49.23;100428.28;5064570;28;20020;-73
2022/06/01 02:29:41;;;;;;;2.92;0.50;;;;;;;23.34;48.73;100424.81;5066444;28;20035;-71
2022/06/01 02:32:09;;;;;;;1.85;0.50;;;;;;;23.34;49.05;100425.63;5067135;28;20033;-71
2022/06/01 02:34:37;;;;;;;2.05;0.50;;;;;;;23.33;48.62;100423.19;5070165;28;20028;-69
2022/06/01 02:37:06;;;;;;;2.65;0.50;;;;;;;23.28;49.11;100421.22;5069962;28;20033;-70
2022/06/01 02:39:33;;;;;;;1.63;0.40;;;;;;;23.26;48.75;100417.16;5069096;28;20139;-75
2022/06/01 02:44:34;;;;;;;1.33;0.40;;;;;;;23.26;48.79;100415.31;5004921;22;20060;-74
2022/06/01 02:46:59;;;;;;;1.98;0.40;;;;;;;23.29;48.80;100422.84;5050974;28;20119;-71
2022/06/01 02:49:24;;;;;;;4.20;0.43;;;;;;;23.30;49.03;100423.66;5050654;28;20037;-70
2022/06/01 02:51:51;;;;;;;2.00;0.50;;;;;;;23.29;49.19;100422.84;5050951;28;20033;-71
2022/06/01 02:54:16;;;;;;;2.20;0.50;;;;;;;23.30;49.00;100416.47;5050982;28;20035;-70
2022/06/01 02:56:42;;;;;;;1.05;0.50;;;;;;;23.32;48.80;100419.72;5050840;28;20029;-70
2022/06/01 02:59:07;;;;;;;2.70;0.57;;;;;;;23.32;48.81;100410.94;5050483;28;20449;-72
2022/06/01 03:01:33;;;;;;;0.98;0.40;;;;;;;23.33;48.87;100423.19;5050622;28;20036;-68
2022/06/01 03:03:59;;;;;;;1.27;0.32;;;;;;;23.33;48.80;100423.19;5050178;28;20033;-70
2022/06/01 03:06:24;;;;;;;2.25;0.50;;;;;;;23.32;48.87;100422.38;5050420;28;20025;-73
2022/06/01 03:08:49;;;;;;;2.60;0.85;;;;;;;23.33;48.80;100426.66;5050448;28;20059;-70
2022/06/01 03:11:15;;;;;;;0.93;0.40;;;;;;;23.34;48.56;100430.94;5050331;28;20486;-69
2022/06/01 03:13:41;;;;;;;2.25;0.40;;;;;;;23.33;49.05;100429.31;5050230;28;20044;-75
2022/06/01 03:16:07;;;;;;;2.67;0.50;;;;;;;23.34;48.78;100433.59;5050663;28;20070;-72
2022/06/01 03:18:32;;;;;;;1.88;0.60;;;;;;;23.33;48.78;100431.97;5050221;28;20025;-71
2022/06/01 03:20:59;;;;;;;1.90;0.40;;;;;;;23.34;48.67;100436.25;5049607;28;20052;-72
2022/06/01 03:23:25;;;;;;;2.30;0.60;;;;;;;23.35;48.67;100431.75;5050032;28;20025;-72
2022/06/01 03:25:52;;;;;;;1.33;0.50;;;;;;;23.34;48.79;100435.44;5050119;28;20067;-72
2022/06/01 03:28:17;;;;;;;1.92;0.40;;;;;;;23.34;48.49;100436.25;5049950;28;20115;-73
2022/06/01 03:30:43;;;;;;;1.63;0.40;;;;;;;23.33;48.79;100439.94;5049661;28;20119;-71
2022/06/01 03:33:10;;;;;;;1.52;0.40;;;;;;;23.34;48.63;100446.88;5049945;28;20018;-76
2022/06/01 03:35:37;;;;;;;2.80;1.00;;;;;;;23.34;48.65;100446.88;5049706;28;20032;-72
2022/06/01 03:38:02;;;;;;;2.40;0.50;;;;;;;23.34;48.76;100449.53;5049863;28;20039;-72
2022/06/01 03:40:31;;;;;;;1.27;0.45;;;;;;;23.35;48.65;100448.50;5049797;28;20036;-70
2022/06/01 03:42:57;;;;;;;2.00;0.47;;;;;;;23.36;48.78;100438.69;5049317;28;20049;-72
2022/06/01 03:48:08;;;;;;;2.83;0.63;;;;;;;23.31;48.74;100435.91;5049912;28;20036;-75
2022/06/01 03:50:35;;;;;;;1.92;0.63;;;;;;;23.32;48.69;100440.19;5049789;28;20032;-68
2022/06/01 03:53:02;;;;;;;2.22;0.60;;;;;;;23.30;48.85;100445.72;5049590;28;20035;-72
2022/06/01 03:55:28;;;;;;;0.90;0.50;;;;;;;23.30;48.74;100440.41;5049527;28;20095;-73
2022/06/01 03:57:54;;;;;;;1.10;0.50;;;;;;;23.31;48.64;100444.69;5049431;28;20469;-72
2022/06/01 04:00:23;;;;;;;0.88;0.43;;;;;;;23.30;48.81;100451.03;5049265;28;20028;-74
2022/06/01 04:02:49;;;;;;;2.90;0.50;;;;;;;23.30;48.85;100456.34;5049192;28;20060;-73
2022/06/01 04:05:16;;;;;;;1.92;0.47;;;;;;;23.31;48.42;100452.66;5048866;28;20035;-70
2022/06/01 04:07:41;;;;;;;2.10;0.50;;;;;;;23.29;48.68;100449.41;5049089;28;20017;-71
2022/06/01 04:10:08;;;;;;;1.05;0.60;;;;;;;23.32;48.59;100451.63;5049147;28;20037;-69
2022/06/01 04:12:34;;;;;;;1.30;0.30;;;;;;;23.31;48.88;100449.19;5049171;28;20311;-73
2022/06/01 04:14:59;;;;;;;2.33;0.82;;;;;;;23.29;48.46;100449.41;5048788;28;20035;-73
2022/06/01 04:17:24;;;;;;;5.55;0.60;;;;;;;;;;5048788;28;20029;-69
2022/06/01 04:19:50;;;;;;;1.70;0.50;;;;;;;23.25;48.76;100455.41;5048976;28;20112;-70
2022/06/01 04:22:16;;;;;;;1.23;0.60;;;;;;;23.23;48.92;100463.59;5049075;28;20028;-72
2022/06/01 04:24:41;;;;;;;2.53;0.40;;;;;;;23.24;49.00;100465.22;5049006;28;20167;-72
2022/06/01 04:27:07;;;;;;;1.52;0.47;;;;;;;23.24;48.80;100473.22;5048796;28;20369;-74
2022/06/01 04:29:33;;;;;;;1.73;0.50;;;;;;;23.26;48.90;100476.44;5048715;28;20036;-71
2022/06/01 04:32:06;;;;;;;1.10;0.50;;;;;;;23.24;48.97;100472.41;5048540;28;20504;-73
2022/06/01 04:34:32;;;;;;;2.22;0.47;;;;;;;23.25;48.75;100472.16;5048507;28;20056;-71
2022/06/01 04:36:57;;;;;;;1.65;0.30;;;;;;;23.25;48.77;100474.00;5048554;28;20387;-72
2022/06/01 04:39:23;;;;;;;2.42;0.47;;;;;;;23.28;49.61;100479.69;5049104;28;20029;-69
2022/06/01 04:41:49;;;;;;;2.00;0.70;;;;;;;23.37;50.36;100482.84;5048585;28;20055;-73
2022/06/01 04:44:15;;;;;;;5.10;2.38;;;;;;;23.44;52.71;100484.38;5047923;28;20128;-74
2022/06/01 04:46:41;;;;;;;3.83;1.00;;;;;;;23.43;51.87;100488.06;5048489;28;20170;-69
2022/06/01 04:49:07;;;;;;;5.80;1.10;;;;;;;23.40;50.87;100496.50;5048379;28;20511;-74
2022/06/01 04:51:33;;;;;;;6.63;0.55;;;;;;;23.38;50.96;100485.28;5048720;28;20476;-76
2022/06/01 04:53:59;;;;;;;1.80;0.65;;;;;;;23.36;50.88;100492.66;5047725;28;20029;-73
2022/06/01 04:56:24;;;;;;;5.43;0.80;;;;;;;23.35;50.39;100504.34;5048217;28;20052;-73
2022/06/01 04:58:50;;;;;;;3.78;0.45;;;;;;;23.34;50.46;100501.91;5048711;28;20480;-75
2022/06/01 05:01:15;;;;;;;4.50;0.52;;;;;;;23.31;50.57;100505.81;5046172;28;20428;-75
2022/06/01 05:03:40;;;;;;;1.17;0.40;;;;;;;23.28;50.33;100498.28;5048270;28;20078;-76
2022/06/01 05:06:06;;;;;;;2.35;0.40;;;;;;;23.26;50.68;100495.06;5048263;28;20115;-78
2022/06/01 05:08:31;;;;;;;2.25;0.65;;;;;;;23.28;50.28;100494.81;5048148;28;20113;-73
2022/06/01 05:10:57;;;;;;;1.23;0.52;;;;;;;23.29;50.12;100497.25;5048492;28;20116;-76
2022/06/01 05:13:22;;;;;;;2.25;0.50;;;;;;;23.30;50.34;100501.53;5048028;28;20113;-69
2022/06/01 05:15:51;;;;;;;1.85;0.40;;;;;;;23.31;50.00;100511.13;5048300;28;20032;-73
2022/06/01 05:18:17;;;;;;;2.75;0.70;;;;;;;23.31;49.70;100505.81;5048185;28;20107;-73
2022/06/01 05:20:42;;;;;;;3.35;0.60;;;;;;;23.32;49.61;100511.94;5047979;28;20481;-75
2022/06/01 05:23:08;;;;;;;1.92;0.70;;;;;;;23.31;49.90;100516.44;5048285;28;20063;-72
2022/06/01 05:25:33;;;;;;;2.22;0.50;;;;;;;23.30;49.49;100512.19;5048360;28;20116;-75
2022/06/01 05:27:59;;;;;;;3.05;0.77;;;;;;;23.31;49.93;100520.97;5047739;28;20658;-70
2022/06/01 05:30:24;;;;;;;2.28;0.75;;;;;;;23.30;49.55;100528.13;5047823;28;20029;-68
2022/06/01 05:32:50;;;;;;;1.17;0.70;;;;;;;23.31;49.49;100528.94;5048514;28;20071;-72
2022/06/01 05:35:15;;;;;;;3.00;0.70;;;;;;;23.30;49.92;100527.31;5047681;28;20479;-69
2022/06/01 05:37:40;;;;;;;1.85;0.75;;;;;;;23.30;49.69;100535.28;5048043;28;20115;-75
2022/06/01 05:40:07;;;;;;;3.45;0.60;;;;;;;23.29;49.90;100531.81;5048100;28;20036;-75
2022/06/01 05:42:32;;;;;;;2.38;0.60;;;;;;;23.30;49.50;100535.28;5047645;28;20850;-75
2022/06/01 05:44:57;;;;;;;2.25;0.50;;;;;;;23.29;49.49;100531.81;5049785;28;20029;-73
2022/06/01 05:47:23;;;;;;;3.85;0.60;;;;;;;23.30;49.81;100541.41;5053667;28;20024;-70
2022/06/01 05:49:49;;;;;;;1.60;0.60;;;;;;;23.29;49.87;100539.78;5054284;28;20029;-71
2022/06/01 05:52:18;;;;;;;2.33;0.60;;;;;;;23.30;50.01;100536.09;5054454;28;20077;-70
2022/06/01 05:54:45;;;;;;;3.20;0.50;;;;;;;23.29;49.56;100545.09;5054530;28;20143;-75
2022/06/01 05:57:10;;;;;;;1.85;0.60;;;;;;;23.30;49.55;100552.03;5053866;28;20485;-69
2022/06/01 05:59:36;;;;;;;3.10;0.63;;;;;;;23.30;49.86;100551.25;5054657;28;20023;-71
2022/06/01 06:02:01;;;;;;;1.00;0.40;;;;;;;23.29;49.58;100553.09;5055024;28;20497;-74
2022/06/01 06:04:27;;;;;;;2.15;0.50;;;;;;;23.28;49.68;100556.78;5053831;28;20075;-71
2022/06/01 06:06:52;;;;;;;2.13;0.80;;;;;;;23.27;50.01;100563.13;5052642;28;20060;-71
2022/06/01 06:09:17;;;;;;;3.20;0.80;;;;;;;23.24;49.87;100560.91;5051818;28;20025;-72
2022/06/01 06:11:43;;;;;;;3.70;0.70;;;;;;;23.20;50.09;100562.41;5051549;28;20056;-76
2022/06/01 06:14:08;;;;;;;2.30;0.80;;;;;;;23.18;50.32;100559.97;5051581;28;20031;-72
2022/06/01 06:16:38;;;;;;;1.45;0.57;;;;;;;23.19;50.00;100560.78;5051612;28;20102;-77
2022/06/01 06:19:04;;;;;;;1.98;0.50;;;;;;;23.21;49.82;100556.06;5051143;28;20046;-74
2022/06/01 06:21:30;;;;;;;2.13;0.60;;;;;;;23.23;50.15;100558.47;5051311;28;20028;-73
2022/06/01 06:24:08;;;;;;;2.00;0.75;;;;;;;23.28;50.26;100558.63;5050931;28;20491;-69
2022/06/01 06:26:35;;;;;;;8.05;1.10;;;;;;;23.34;51.34;100557.72;5050965;28;20108;-71
2022/06/01 06:29:02;;;;;;;8.38;2.00;;;;;;;23.34;51.90;100561.19;5051106;28;20021;-71
2022/06/01 06:31:27;;;;;;;6.47;1.85;;;;;;;23.35;51.95;100559.34;5050680;28;20063;-74
2022/06/01 06:33:53;;;;;;;9.10;1.55;;;;;;;23.34;51.79;100553.22;5051088;28;20049;-71
2022/06/01 06:36:18;;;;;;;6.03;0.95;;;;;;;23.29;51.86;100550.44;5051200;28;20284;-71
2022/06/01 06:38:44;;;;;;;4.65;1.40;;;;;;;23.25;51.79;100551.91;5050747;28;20102;-73
2022/06/01 06:41:11;;;;;;;5.80;1.25;;;;;;;23.25;52.31;100557.22;5050450;28;20412;-74
2022/06/01 06:43:37;;;;;;;3.42;1.17;;;;;;;23.25;52.62;100554.56;5050425;28;20385;-75
2022/06/01 06:46:10;;;;;;;7.43;0.80;;;;;;;23.26;52.76;100550.06;5050892;28;20094;-71
2022/06/01 06:48:35;;;;;;;2.13;0.60;;;;;;;23.28;52.97;100554.13;5051064;28;20036;-74
2022/06/01 06:51:01;;;;;;;4.55;0.88;;;;;;;23.26;52.38;100540.25;5050827;28;20033;-69
2022/06/01 06:53:28;;;;;;;6.30;0.88;;;;;;;23.29;53.06;100550.44;5050232;28;20029;-71
2022/06/01 06:55:53;;;;;;;1.15;0.40;;;;;;;23.33;52.80;100556.09;5050626;28;20043;-73
2022/06/01 06:58:19;;;;;;;13.63;1.02;;;;;;;23.32;52.78;100557.13;5050261;28;20098;-73
2022/06/01 07:00:44;;;;;;;4.82;0.50;;;;;;;23.31;52.38;100552.84;5050305;28;20305;-75
2022/06/01 07:03:10;;;;;;;4.43;0.85;;;;;;;23.31;52.55;100555.50;5050648;28;20025;-69
2022/06/01 07:08:20;;;;;;;3.95;0.60;;;;;;;23.30;53.47;100564.53;5050293;28;20048;-75
2022/06/01 07:10:46;;;;;;;8.55;1.17;;;;;;;23.31;53.35;100560.84;5050508;28;20017;-74
2022/06/01 07:13:11;;;;;;;1.95;0.73;;;;;;;23.31;53.34;100564.31;5050550;28;20060;-73
2022/06/01 07:15:37;;;;;;;6.50;0.77;;;;;;;23.32;52.92;100568.59;5050407;28;20380;-73
2022/06/01 07:18:05;;;;;;;4.65;0.70;;;;;;;23.33;53.97;100570.19;5049864;28;20393;-74
2022/06/01 07:20:31;;;;;;;3.47;0.80;;;;;;;23.33;54.02;100570.19;5050155;28;20613;-77
2022/06/01 07:22:57;;;;;;;6.35;0.82;;;;;;;23.35;54.04;100573.44;5050472;28;20567;-76
2022/06/01 07:25:23;;;;;;;1.60;0.50;;;;;;;23.35;54.64;100575.28;5050053;28;20115;-74
2022/06/01 07:27:49;;;;;;;4.35;0.50;;;;;;;23.35;54.21;100570.78;5049784;28;20021;-76
2022/06/01 07:30:15;;;;;;;2.47;0.50;;;;;;;23.35;54.14;100572.63;5050137;28;20029;-73
2022/06/01 07:32:46;;;;;;;6.65;0.80;;;;;;;23.36;53.92;100575.06;5050036;28;20084;-75
2022/06/01 07:35:13;;;;;;;3.03;0.60;;;;;;;23.38;53.76;100575.66;5049454;28;20033;-76
2022/06/01 07:43:07;;;;;;;4.72;1.02;;;;;;;23.38;53.19;100573.00;5049584;28;20512;-76
2022/06/01 07:45:34;;;;;;;3.25;0.80;;;;;;;23.40;53.33;100570.13;5049183;28;20060;-70
2022/06/01 07:48:01;;;;;;;5.38;1.00;;;;;;;23.40;53.41;100568.28;5049417;28;20366;-74
2022/06/01 07:50:27;;;;;;;4.68;1.13;;;;;;;23.40;53.44;100562.94;5049541;28;20021;-74
2022/06/01 07:52:52;;;;;;;3.22;1.20;;;;;;;23.42;53.34;100568.03;5049845;28;20020;-77
2022/06/01 07:55:17;;;;;;;4.95;0.90;;;;;;;23.42;53.38;100570.69;5049237;28;20021;-72
2022/06/01 07:57:43;;;;;;;3.70;1.15;;;;;;;23.42;53.28;100566.19;5046834;28;20498;-75
2022/06/01 08:00:09;;;;;;;6.18;1.15;;;;;;;23.42;53.30;100566.19;5046963;28;20021;-74
2022/06/01 08:02:34;;;;;;;5.35;1.25;;;;;;;23.44;53.41;100568.63;5047513;28;20033;-75
2022/06/01 08:04:59;;;;;;;3.63;1.00;;;;;;;23.44;53.48;100560.66;5048506;28;20120;-75
2022/06/01 08:07:25;;;;;;;2.17;0.90;;;;;;;23.45;53.63;100567.59;5047668;28;20481;-71
2022/06/01 08:09:50;;;;;;;5.30;1.20;;;;;;;23.46;53.62;100564.72;5046263;28;20033;-73
2022/06/01 08:15:00;;;;;;;3.55;1.05;;;;;;;23.45;53.69;100567.59;5036592;28;20051;-71
2022/06/01 08:17:26;;;;;;;4.40;1.02;;;;;;;23.46;53.52;100561.25;5046157;28;20140;-78
2022/06/01 08:19:51;;;;;;;5.07;1.02;;;;;;;23.45;53.08;100560.44;5046405;28;20040;-73
2022/06/01 08:22:17;;;;;;;2.25;0.93;;;;;;;23.44;53.18;100556.16;5047725;28;20032;-76
2022/06/01 08:24:42;;;;;;;4.25;0.80;;;;;;;23.44;53.28;100550.81;5045504;22;20211;-74
2022/06/01 08:27:08;;;;;;;1.50;1.02;;;;;;;23.44;53.32;100556.16;5029264;28;20424;-73
2022/06/01 08:29:35;;;;;;;5.80;1.30;;;;;;;23.45;53.14;100554.31;5027786;28;20477;-72
2022/06/01 08:32:00;;;;;;;3.42;0.70;;;;;;;23.45;52.89;100556.97;5044141;28;20029;-70
2022/06/01 08:34:25;;;;;;;7.32;1.30;;;;;;;23.46;53.10;100553.25;5041792;28;20102;-71
2022/06/01 08:36:51;;;;;;;3.78;1.20;;;;;;;23.45;53.44;100554.31;5047874;28;20532;-77
2022/06/01 08:39:16;;;;;;;3.17;1.25;;;;;;;23.45;53.20;100554.31;5045887;28;20029;-75
2022/06/01 08:41:42;;;;;;;3.58;1.20;;;;;;;23.45;53.09;100555.09;5045699;28;20380;-75
2022/06/01 08:44:31;;;;;;;4.18;1.83;;;;;;;23.43;53.22;100561.69;5046501;28;20539;-75
2022/06/01 08:47:10;;;;;;;6.78;1.88;;;;;;;23.43;53.05;100567.81;5045838;28;20120;-77
2022/06/01 08:49:37;;;;;;;4.60;1.60;;;;;;;23.44;53.30;100566.78;5048091;28;20039;-72
2022/06/01 08:52:04;;;;;;;5.43;1.38;;;;;;;23.46;53.17;100564.72;5048008;28;20103;-75
2022/06/01 08:54:30;;;;;;;5.03;1.50;;;;;;;23.50;53.53;100563.22;5048014;28;20559;-74
2022/06/01 08:57:04;;;;;;;3.78;1.20;;;;;;;23.53;53.50;100569.13;5048243;28;20159;-72
2022/06/01 08:59:53;;;;;;;3.67;1.10;;;;;;;23.49;53.28;100566.91;5048670;28;20029;-75
2022/06/01 09:02:31;;;;;;;3.63;1.02;;;;;;;23.49;53.65;100576.75;5048320;28;20025;-73
2022/06/01 09:05:34;;;;;;;4.57;1.33;;;;;;;23.47;53.36;100565.53;5048012;28;20040;-78
2022/06/01 09:08:07;;;;;;;4.60;1.55;;;;;;;23.49;53.21;100569.56;5048252;28;20056;-72
2022/06/01 09:11:04;;;;;;;5.45;1.60;;;;;;;23.49;53.26;100569.56;5048156;28;20039;-76
2022/06/01 09:13:52;;;;;;;3.92;1.40;;;;;;;23.50;53.27;100568.53;5048298;28;20057;-74
2022/06/01 09:16:24;;;;;;;8.85;1.73;;;;;;;23.52;53.54;100570.16;5048385;28;20028;-72
2022/06/01 09:18:52;;;;;;;6.65;1.67;;;;;;;23.52;53.58;100563.00;5048305;28;20052;-76
2022/06/01 09:24:28;;;;;;;6.32;1.35;;;;;;;23.50;53.22;100563.22;5053750;28;20118;-74
2022/06/01 09:27:02;;;;;;;3.22;1.50;;;;;;;23.52;53.33;100556.88;5068202;28;20484;-73
2022/06/01 09:29:35;;;;;;;5.85;1.20;;;;;;;23.53;53.78;100561.16;5068242;28;20029;-72
2022/06/01 09:32:06;;;;;;;3.92;1.48;;;;;;;23.56;53.18;100558.06;5067822;28;20071;-75
2022/06/01 09:34:47;;;;;;;3.92;1.30;;;;;;;23.56;53.53;100555.41;5068300;28;20028;-76
2022/06/01 09:37:43;;;;;;;3.67;1.20;;;;;;;23.55;53.01;100556.44;5068020;28;20029;-75
2022/06/01 09:40:23;;;;;;;;;;;;;;;23.47;53.26;100545.06;5068765;28;20102;-76
2022/06/01 09:42:51;;;;;;;5.03;1.10;;;;;;;23.52;53.78;100552.34;5071937;28;19920;-72
2022/06/01 09:45:26;;;;;;;8.70;1.98;;;;;;;23.57;54.13;100557.03;5071851;28;20041;-75
2022/06/01 09:48:05;;;;;;;3.92;2.00;;;;;;;23.59;53.90;100550.44;5072153;28;20012;-75
2022/06/01 09:50:33;;;;;;;4.07;1.23;;;;;;;23.61;54.13;100552.88;5071326;28;20036;-72
2022/06/01 09:53:17;;;;;;;4.72;1.63;;;;;;;23.62;54.30;100559.81;5072051;28;20024;-79
2022/06/01 09:56:09;;;;;;;6.22;1.23;;;;;;;23.62;54.35;100549.19;5071673;28;20495;-73
2022/06/01 10:07:05;;;;;;;4.28;1.45;;;;;;;23.62;53.83;100555.31;5071808;28;20354;-72
2022/06/01 10:09:33;;;;;;;3.90;1.75;;;;;;;23.65;54.24;100554.00;5071092;28;20032;-75
2022/06/01 10:12:14;;;;;;;5.00;1.27;;;;;;;23.66;54.42;100555.63;5071223;28;20430;-74
2022/06/01 10:14:48;;;;;;;2.97;1.35;;;;;;;23.68;54.55;100553.56;5071265;28;20032;-70
2022/06/01 10:17:37;;;;;;;7.90;2.10;;;;;;;23.67;54.40;100554.59;5071425;28;20028;-74
2022/06/01 10:20:28;;;;;;;7.53;1.90;;;;;;;23.67;54.21;100544.78;5070598;28;20045;-75
2022/06/01 10:23:21;;;;;;;6.03;1.60;;;;;;;23.70;54.09;100551.50;5071003;28;20028;-73
2022/06/01 10:25:53;;;;;;;4.68;1.67;;;;;;;23.71;54.09;100550.44;5070927;28;20084;-73
2022/06/01 10:28:25;;;;;;;10.10;1.60;;;;;;;23.75;53.83;100551.63;5070923;28;20041;-72
2022/06/01 10:30:58;;;;;;;5.88;1.80;;;;;;;23.78;54.30;100543.19;5053779;28;20032;-73
2022/06/01 10:33:29;;;;;;;7.68;1.80;;;;;;;23.78;53.85;100551.16;5071001;28;20039;-76
2022/06/01 10:36:12;;;;;;;5.18;1.75;;;;;;;23.82;53.89;100544.34;5066011;28;20226;-72
2022/06/01 10:38:49;;;;;;;4.97;1.67;;;;;;;23.87;53.66;100548.97;5065818;28;20484;-75
2022/06/01 10:41:21;;;;;;;5.70;1.52;;;;;;;23.89;53.50;100544.25;5052778;28;20098;-74
2022/06/01 10:44:05;;;;;;;4.15;1.70;;;;;;;23.93;53.37;100545.41;5049594;28;20079;-73
2022/06/01 10:46:50;;;;;;;3.28;1.77;;;;;;;23.95;53.33;100548.66;5054286;28;20068;-76
2022/06/01 10:49:33;;;;;;;5.53;2.00;;;;;;;23.94;52.73;100542.50;5060037;28;20032;-75
2022/06/01 10:52:33;;;;;;;4.40;1.58;;;;;;;23.93;52.84;100546.22;5049154;28;20029;-71
2022/06/01 10:55:12;;;;;;;8.05;1.85;;;;;;;23.91;53.15;100548.28;5050452;28;20047;-73
2022/06/01 10:57:39;;;;;;;6.68;1.55;;;;;;;23.94;54.40;100542.50;5050660;28;20035;-75
2022/06/01 11:00:13;;;;;;;4.50;1.65;;;;;;;23.97;55.24;100542.06;5050566;28;20033;-73
2022/06/01 11:03:02;;;;;;;8.50;1.38;;;;;;;24.27;55.47;100543.81;5050371;28;20029;-72
2022/06/01 11:05:37;;;;;;;3.63;1.17;;;;;;;24.65;54.15;100541.44;5050385;28;20054;-72
2022/06/01 11:08:12;;;;;;;13.57;2.23;;;;;;;24.86;53.09;100541.84;5050262;28;20108;-69
2022/06/01 11:10:56;;;;;;;6.68;1.48;;;;;;;24.91;52.24;100547.28;5050108;28;20544;-75
2022/06/01 11:13:25;;;;;;;6.28;1.20;;;;;;;24.77;52.10;100550.22;5050345;28;20112;-69
2022/06/01 11:16:12;;;;;;;2.50;1.00;;;;;;;24.63;51.57;100545.38;5050293;28;20786;-73
2022/06/01 11:19:05;;;;;;;3.20;1.30;;;;;;;24.52;51.11;100539.03;5050290;28;20025;-73
2022/06/01 11:21:54;;;;;;;4.72;1.23;;;;;;;24.43;51.14;100533.25;5050024;28;20033;-71
2022/06/01 11:24:22;;;;;;;3.72;1.42;;;;;;;24.41;51.53;100538.00;5054496;28;20071;-72
2022/06/01 11:26:59;;;;;;;7.75;1.40;;;;;;;24.37;51.58;100536.03;5069635;28;20188;-72
2022/06/01 11:29:49;;;;;;;5.03;0.98;;;;;;;24.33;51.79;100542.88;5061957;28;20024;-76
2022/06/01 11:32:23;;;;;;;3.30;1.58;;;;;;;24.31;52.24;100536.97;5069855;28;20541;-72
2022/06/01 11:34:55;;;;;;;5.93;1.30;;;;;;;24.29;52.22;100528.41;5070139;28;20542;-72
2022/06/01 11:37:33;;;;;;;5.50;0.98;;;;;;;24.29;52.15;100529.22;5061775;28;20035;-75
2022/06/01 11:40:02;;;;;;;4.05;0.90;;;;;;;24.28;52.25;100521.47;5069595;28;20029;-75
2022/06/01 11:42:33;;;;;;;6.00;1.45;;;;;;;24.27;52.04;100511.84;5051650;28;20028;-75
2022/06/01 11:45:10;;;;;;;5.35;1.38;;;;;;;24.28;51.97;100521.47;5069356;28;20039;-79
2022/06/01 11:47:49;;;;;;;3.13;1.02;;;;;;;24.28;51.96;100516.13;5069823;28;20040;-72
2022/06/01 11:50:33;;;;;;;4.03;1.10;;;;;;;24.28;52.37;100505.50;5069773;28;20052;-71
2022/06/01 11:53:01;;;;;;;3.63;0.88;;;;;;;24.28;52.09;100508.16;5062789;28;20035;-74
2022/06/01 11:55:38;;;;;;;3.88;1.20;;;;;;;24.28;51.93;100511.63;5065643;28;20388;-70
2022/06/01 11:58:03;;;;;;;3.97;1.17;;;;;;;24.31;51.53;100505.84;5065863;28;20032;-75
2022/06/01 12:00:43;;;;;;;2.72;1.10;;;;;;;24.29;51.61;100505.25;5066923;28;20439;-69
2022/06/01 12:03:17;;;;;;;4.65;1.10;;;;;;;24.30;51.48;100503.41;5065934;28;20036;-75
2022/06/01 12:06:13;;;;;;;5.65;1.08;;;;;;;24.31;51.62;100499.69;5067370;28;20039;-76
2022/06/01 12:08:49;;;;;;;;;;;;;;;24.28;51.38;100500.97;4962969;28;20047;-75
2022/06/01 12:11:38;;;;;;;7.95;1.20;;;;;;;24.34;51.70;100491.25;4967322;28;19921;-73